createdAt,value
2022-08-30T00:01:26.681Z,1.20
2022-08-30T00:03:56.107Z,1.05
2022-08-30T00:06:29.152Z,1.10
2022-08-30T00:09:00.999Z,1.42
2022-08-30T00:11:30.295Z,1.15
2022-08-30T00:13:59.954Z,1.00
2022-08-30T00:16:28.249Z,1.10
2022-08-30T00:18:56.391Z,1.33
2022-08-30T00:21:24.431Z,1.02
2022-08-30T00:23:52.700Z,1.13
2022-08-30T00:26:22.150Z,1.10
2022-08-30T00:28:50.017Z,1.23
2022-08-30T00:31:18.416Z,1.10
2022-08-30T00:33:46.494Z,1.02
2022-08-30T00:36:14.421Z,1.10
2022-08-30T00:38:42.714Z,1.48
2022-08-30T00:41:11.808Z,1.10
2022-08-30T00:43:43.499Z,1.25
2022-08-30T00:46:13.184Z,1.20
2022-08-30T00:48:46.308Z,1.38
2022-08-30T00:51:16.463Z,1.20
2022-08-30T00:53:49.524Z,1.30
2022-08-30T00:56:19.191Z,1.17
2022-08-30T00:58:53.302Z,1.35
2022-08-30T01:01:21.918Z,1.30
2022-08-30T01:03:50.336Z,1.20
2022-08-30T01:06:19.048Z,1.30
2022-08-30T01:08:48.086Z,1.27
2022-08-30T01:11:19.923Z,1.23
2022-08-30T01:13:51.079Z,1.10
2022-08-30T01:16:19.578Z,1.38
2022-08-30T01:18:52.762Z,1.38
2022-08-30T01:21:28.661Z,1.20
2022-08-30T01:24:03.033Z,1.30
2022-08-30T01:26:32.663Z,1.30
2022-08-30T01:29:05.332Z,1.27
2022-08-30T01:31:37.093Z,1.52
2022-08-30T01:34:07.764Z,1.27
2022-08-30T01:36:36.961Z,1.50
2022-08-30T01:39:06.766Z,1.60
2022-08-30T01:41:36.470Z,1.50
2022-08-30T01:44:07.593Z,1.70
2022-08-30T01:46:38.602Z,1.40
2022-08-30T01:49:09.076Z,1.88
2022-08-30T01:51:37.624Z,1.40
2022-08-30T01:54:07.664Z,1.40
2022-08-30T01:56:36.217Z,1.60
2022-08-30T01:59:04.564Z,1.98
2022-08-30T02:01:35.725Z,1.52
2022-08-30T02:04:05.557Z,1.40
2022-08-30T02:06:33.977Z,1.23
2022-08-30T02:09:02.680Z,1.52
2022-08-30T02:11:32.150Z,1.48
2022-08-30T02:14:00.197Z,1.30
2022-08-30T02:16:30.735Z,1.23
2022-08-30T02:18:58.828Z,1.50
2022-08-30T02:21:27.737Z,1.40
2022-08-30T02:23:56.088Z,1.63
2022-08-30T02:26:24.608Z,1.30
2022-08-30T02:28:56.439Z,1.70
2022-08-30T02:31:27.449Z,1.30
2022-08-30T02:33:55.640Z,1.40
2022-08-30T02:36:25.919Z,1.50
2022-08-30T02:38:54.736Z,1.40
2022-08-30T02:41:24.255Z,1.40
2022-08-30T02:43:58.471Z,1.70
2022-08-30T02:46:27.085Z,1.27
2022-08-30T02:49:05.636Z,1.40
2022-08-30T02:51:43.777Z,2.75
2022-08-30T02:54:15.716Z,1.30
2022-08-30T02:56:43.732Z,1.45
2022-08-30T02:59:13.142Z,1.50
2022-08-30T03:01:41.056Z,1.55
2022-08-30T03:04:09.933Z,1.30
2022-08-30T03:06:38.951Z,1.42
2022-08-30T03:09:07.033Z,1.30
2022-08-30T03:11:35.158Z,1.60
2022-08-30T03:14:03.195Z,1.60
2022-08-30T03:16:33.754Z,1.42
2022-08-30T03:19:01.708Z,1.33
2022-08-30T03:21:29.704Z,2.42
2022-08-30T03:23:57.578Z,1.40
2022-08-30T03:26:25.540Z,1.27
2022-08-30T03:28:53.598Z,1.48
2022-08-30T03:31:21.988Z,1.70
2022-08-30T03:33:52.000Z,1.40
2022-08-30T03:36:20.152Z,1.42
2022-08-30T03:38:48.587Z,1.42
2022-08-30T03:41:17.245Z,1.40
2022-08-30T03:43:46.814Z,1.60
2022-08-30T03:46:15.961Z,1.50
2022-08-30T03:48:47.071Z,1.30
2022-08-30T03:51:18.105Z,1.50
2022-08-30T03:53:46.183Z,1.50
2022-08-30T03:56:17.425Z,1.50
2022-08-30T03:58:45.857Z,1.40
2022-08-30T04:01:13.910Z,1.40
2022-08-30T04:03:41.798Z,1.30
2022-08-30T04:06:09.731Z,1.55
2022-08-30T04:08:40.557Z,1.58
2022-08-30T04:11:08.685Z,1.50
2022-08-30T04:13:36.680Z,1.70
2022-08-30T04:16:05.163Z,1.70
2022-08-30T04:18:33.098Z,1.60
2022-08-30T04:21:01.134Z,1.50
2022-08-30T04:23:29.128Z,1.40
2022-08-30T04:25:59.493Z,1.50
2022-08-30T04:28:27.571Z,1.60
2022-08-30T04:30:55.678Z,1.40
2022-08-30T04:33:23.659Z,1.60
2022-08-30T04:35:54.738Z,2.90
2022-08-30T04:38:25.555Z,1.45
2022-08-30T04:40:58.099Z,1.60
2022-08-30T04:43:26.771Z,1.50
2022-08-30T04:45:55.511Z,1.45
2022-08-30T04:48:23.967Z,1.67
2022-08-30T04:50:52.390Z,1.80
2022-08-30T04:53:20.418Z,1.33
2022-08-30T04:55:48.708Z,1.70
2022-08-30T04:58:19.524Z,1.35
2022-08-30T05:00:50.953Z,1.90
2022-08-30T05:03:19.164Z,1.67
2022-08-30T05:05:49.159Z,1.73
2022-08-30T05:08:24.617Z,1.63
2022-08-30T05:10:53.762Z,1.42
2022-08-30T05:13:35.029Z,1.80
2022-08-30T05:16:05.514Z,1.75
2022-08-30T05:18:33.965Z,1.33
2022-08-30T05:21:07.603Z,1.30
2022-08-30T05:23:37.187Z,1.50
2022-08-30T05:26:07.654Z,1.58
2022-08-30T05:28:37.494Z,1.58
2022-08-30T05:31:14.746Z,1.60
2022-08-30T05:33:43.073Z,1.40
2022-08-30T05:36:13.253Z,1.35
2022-08-30T05:38:42.792Z,1.27
2022-08-30T05:41:12.757Z,1.33
2022-08-30T05:43:42.509Z,1.27
2022-08-30T05:46:14.799Z,1.20
2022-08-30T05:48:42.888Z,1.05
2022-08-30T05:51:13.170Z,1.00
2022-08-30T05:53:42.186Z,1.20
2022-08-30T05:56:12.257Z,1.10
2022-08-30T05:58:41.952Z,1.15
2022-08-30T06:01:23.750Z,1.00
2022-08-30T06:03:52.463Z,0.93
2022-08-30T06:06:20.472Z,0.90
2022-08-30T06:08:49.183Z,0.90
2022-08-30T06:11:20.311Z,1.10
2022-08-30T06:13:50.670Z,0.90
2022-08-30T06:16:20.798Z,1.00
2022-08-30T06:18:49.848Z,0.85
2022-08-30T06:21:18.934Z,1.10
2022-08-30T06:23:47.086Z,1.00
2022-08-30T06:26:17.145Z,0.90
2022-08-30T06:28:45.524Z,1.00
2022-08-30T06:31:16.346Z,0.90
2022-08-30T06:33:45.264Z,1.02
2022-08-30T06:36:16.827Z,1.10
2022-08-30T06:38:45.312Z,1.20
2022-08-30T06:41:15.402Z,1.23
2022-08-30T06:43:48.650Z,1.15
2022-08-30T06:46:21.675Z,0.95
2022-08-30T06:48:49.876Z,1.00
2022-08-30T06:51:21.878Z,1.05
2022-08-30T06:53:50.794Z,1.00
2022-08-30T06:56:20.254Z,0.93
2022-08-30T06:58:49.726Z,1.10
2022-08-30T07:01:22.081Z,0.80
2022-08-30T07:03:50.305Z,1.10
2022-08-30T07:06:19.088Z,0.80
2022-08-30T07:08:48.096Z,1.00
2022-08-30T07:11:16.543Z,0.82
2022-08-30T07:13:45.963Z,0.80
2022-08-30T07:16:15.195Z,0.88
2022-08-30T07:18:54.974Z,0.80
2022-08-30T07:21:26.663Z,0.75
2022-08-30T07:23:56.117Z,0.77
2022-08-30T07:26:26.687Z,0.90
2022-08-30T07:28:56.233Z,0.90
2022-08-30T07:31:25.518Z,0.75
2022-08-30T07:33:55.739Z,0.90
2022-08-30T07:36:24.517Z,0.82
2022-08-30T07:38:54.551Z,0.73
2022-08-30T07:41:25.570Z,0.70
2022-08-30T07:43:53.799Z,0.60
2022-08-30T07:46:23.217Z,0.70
2022-08-30T07:48:51.715Z,0.75
2022-08-30T07:51:23.873Z,1.00
2022-08-30T07:53:52.588Z,0.70
2022-08-30T07:56:20.896Z,0.70
2022-08-30T07:58:48.935Z,0.70
2022-08-30T08:01:18.805Z,0.80
2022-08-30T08:03:48.012Z,0.80
2022-08-30T08:06:18.292Z,0.80
2022-08-30T08:08:47.846Z,0.60
2022-08-30T08:11:19.390Z,0.80
2022-08-30T08:13:54.129Z,0.80
2022-08-30T08:16:24.248Z,0.70
2022-08-30T08:18:53.086Z,0.57
2022-08-30T08:21:23.399Z,0.70
2022-08-30T08:23:53.053Z,0.60
2022-08-30T08:26:21.733Z,0.60
2022-08-30T08:28:50.179Z,0.60
2022-08-30T08:31:19.872Z,0.75
2022-08-30T08:33:49.582Z,0.70
2022-08-30T08:36:18.592Z,0.90
2022-08-30T08:38:46.677Z,0.80
2022-08-30T08:41:29.462Z,0.80
2022-08-30T08:43:57.464Z,0.60
2022-08-30T08:46:29.605Z,0.50
2022-08-30T08:49:02.821Z,0.60
2022-08-30T08:52:01.021Z,0.60
2022-08-30T08:54:37.570Z,0.60
2022-08-30T08:57:07.220Z,0.60
2022-08-30T08:59:35.276Z,0.60
2022-08-30T09:02:24.101Z,0.80
2022-08-30T09:04:55.509Z,0.80
2022-08-30T09:07:29.742Z,0.80
2022-08-30T09:10:00.617Z,0.70
2022-08-30T09:12:30.190Z,0.70
2022-08-30T09:15:03.818Z,0.55
2022-08-30T09:17:50.959Z,0.65
2022-08-30T09:20:28.445Z,0.55
2022-08-30T09:22:57.025Z,0.65
2022-08-30T09:25:29.954Z,0.50
2022-08-30T09:28:12.541Z,0.70
2022-08-30T09:30:41.185Z,0.70
2022-08-30T09:33:20.548Z,0.65
2022-08-30T09:35:52.080Z,0.60
2022-08-30T09:38:24.674Z,0.80
2022-08-30T09:40:54.856Z,0.60
2022-08-30T09:43:28.423Z,0.55
2022-08-30T09:46:11.296Z,0.70
2022-08-30T09:48:47.693Z,0.45
2022-08-30T09:51:38.616Z,0.40
2022-08-30T09:54:18.383Z,0.50
2022-08-30T09:56:57.989Z,0.50
2022-08-30T09:59:42.461Z,0.50
2022-08-30T10:02:29.228Z,0.40
2022-08-30T10:05:07.119Z,0.22
2022-08-30T10:07:43.871Z,0.60
2022-08-30T10:10:18.966Z,0.65
2022-08-30T10:13:02.678Z,0.60
2022-08-30T10:15:36.532Z,0.40
2022-08-30T10:18:18.303Z,0.60
2022-08-30T10:20:54.835Z,0.40
2022-08-30T10:23:28.226Z,0.60
2022-08-30T10:26:01.318Z,0.50
2022-08-30T10:28:35.922Z,0.40
2022-08-30T10:31:11.134Z,0.40
2022-08-30T10:33:42.544Z,0.60
2022-08-30T10:36:15.967Z,0.60
2022-08-30T10:38:50.088Z,0.50
2022-08-30T10:41:26.126Z,0.47
2022-08-30T10:43:59.905Z,0.50
2022-08-30T10:46:37.270Z,0.50
2022-08-30T10:49:10.097Z,0.43
2022-08-30T10:51:43.359Z,0.30
2022-08-30T10:54:18.685Z,0.40
2022-08-30T10:56:51.619Z,0.70
2022-08-30T10:59:20.650Z,0.45
2022-08-30T11:02:22.046Z,0.50
2022-08-30T11:05:17.994Z,0.75
2022-08-30T11:07:58.175Z,0.80
2022-08-30T11:10:38.849Z,0.80
2022-08-30T11:13:12.024Z,0.65
2022-08-30T11:16:00.830Z,0.57
2022-08-30T11:18:33.494Z,0.70
2022-08-30T11:21:36.271Z,0.60
2022-08-30T11:24:11.486Z,0.98
2022-08-30T11:27:01.415Z,0.70
2022-08-30T11:29:33.310Z,0.60
2022-08-30T11:32:23.341Z,1.00
2022-08-30T11:35:00.690Z,0.55
2022-08-30T11:37:35.995Z,0.80
2022-08-30T11:40:07.592Z,0.70
2022-08-30T11:42:45.784Z,0.68
2022-08-30T11:45:44.585Z,0.70
2022-08-30T11:48:55.251Z,0.70
2022-08-30T11:52:26.934Z,0.70
2022-08-30T11:55:03.711Z,0.70
2022-08-30T11:57:46.504Z,1.10
2022-08-30T12:00:31.354Z,1.23
2022-08-30T12:03:05.443Z,0.70
2022-08-30T12:05:58.956Z,0.80
2022-08-30T12:09:02.957Z,0.90
2022-08-30T12:11:59.648Z,0.90
2022-08-30T12:14:41.331Z,0.80
2022-08-30T12:17:36.113Z,0.73
2022-08-30T12:20:12.768Z,0.77
2022-08-30T12:22:40.684Z,0.80
2022-08-30T12:25:18.579Z,0.88
2022-08-30T12:27:48.475Z,0.90
2022-08-30T12:30:26.757Z,0.70
2022-08-30T12:32:55.710Z,0.60
2022-08-30T12:35:29.207Z,0.70
2022-08-30T12:38:01.477Z,0.63
2022-08-30T12:40:31.463Z,0.70
2022-08-30T12:43:04.862Z,0.70
2022-08-30T12:45:40.078Z,0.70
2022-08-30T12:48:11.142Z,0.80
2022-08-30T12:50:48.931Z,0.70
2022-08-30T12:53:25.561Z,0.82
2022-08-30T12:55:56.276Z,0.80
2022-08-30T12:58:43.721Z,0.70
2022-08-30T13:01:26.361Z,0.80
2022-08-30T13:03:59.737Z,0.70
2022-08-30T13:06:40.070Z,0.68
2022-08-30T13:09:09.450Z,0.82
2022-08-30T13:11:37.767Z,0.70
2022-08-30T13:14:33.044Z,0.70
2022-08-30T13:17:12.686Z,0.80
2022-08-30T13:19:43.389Z,0.80
2022-08-30T13:22:27.596Z,0.80
2022-08-30T13:24:56.382Z,0.70
2022-08-30T13:27:25.816Z,0.60
2022-08-30T13:29:55.582Z,0.50
2022-08-30T13:32:24.578Z,0.50
2022-08-30T13:34:52.668Z,0.52
2022-08-30T13:40:15.129Z,0.63
2022-08-30T13:42:46.653Z,0.60
2022-08-30T13:48:07.645Z,0.70
2022-08-30T13:50:35.597Z,0.60
2022-08-30T13:53:03.538Z,0.70
2022-08-30T13:55:31.585Z,0.82
2022-08-30T13:57:59.498Z,0.63
2022-08-30T14:00:33.580Z,0.60
2022-08-30T14:03:05.039Z,0.70
2022-08-30T14:06:04.935Z,0.70
2022-08-30T14:11:18.609Z,0.80
2022-08-30T14:16:40.374Z,0.73
2022-08-30T14:19:10.376Z,0.60
2022-08-30T14:21:38.916Z,0.50
2022-08-30T14:24:07.444Z,0.77
2022-08-30T14:26:37.825Z,0.63
2022-08-30T14:29:09.650Z,0.50
2022-08-30T14:31:40.013Z,0.45
2022-08-30T14:34:09.477Z,0.40
2022-08-30T14:36:41.322Z,0.50
2022-08-30T14:39:12.615Z,0.50
2022-08-30T14:41:44.385Z,0.50
2022-08-30T14:44:13.552Z,0.57
2022-08-30T14:46:43.431Z,0.55
2022-08-30T14:49:12.364Z,0.50
2022-08-30T14:51:41.954Z,0.40
2022-08-30T14:54:15.863Z,0.60
2022-08-30T14:56:44.962Z,0.70
2022-08-30T14:59:13.363Z,0.57
2022-08-30T15:01:43.914Z,0.75
2022-08-30T15:04:13.147Z,0.60
2022-08-30T15:06:43.098Z,0.43
2022-08-30T15:09:14.840Z,0.55
2022-08-30T15:11:44.649Z,0.70
2022-08-30T15:14:16.235Z,0.70
2022-08-30T15:16:46.253Z,0.40
2022-08-30T15:19:16.502Z,0.43
2022-08-30T15:21:46.605Z,0.30
2022-08-30T15:24:25.000Z,0.57
2022-08-30T15:27:03.892Z,0.47
2022-08-30T15:29:32.234Z,0.40
2022-08-30T15:32:03.670Z,0.50
2022-08-30T15:34:34.057Z,0.52
2022-08-30T15:37:07.779Z,0.60
2022-08-30T15:39:37.045Z,0.70
2022-08-30T15:42:06.168Z,0.70
2022-08-30T15:44:35.091Z,0.52
2022-08-30T15:47:08.038Z,1.00
2022-08-30T15:49:36.091Z,0.98
2022-08-30T15:52:09.350Z,0.90
2022-08-30T15:54:37.690Z,0.82
2022-08-30T15:57:06.068Z,0.90
2022-08-30T15:59:34.180Z,0.90
2022-08-30T16:02:02.319Z,0.80
2022-08-30T16:04:32.765Z,1.08
2022-08-30T16:07:00.976Z,1.00
2022-08-30T16:09:29.955Z,1.10
2022-08-30T16:12:00.981Z,1.00
2022-08-30T16:14:31.712Z,1.00
2022-08-30T16:17:04.139Z,1.00
2022-08-30T16:19:34.953Z,1.10
2022-08-30T16:22:03.608Z,0.93
2022-08-30T16:24:31.839Z,0.88
2022-08-30T16:27:00.133Z,1.10
2022-08-30T16:29:28.047Z,1.20
2022-08-30T16:31:57.693Z,1.00
2022-08-30T16:34:30.403Z,1.10
2022-08-30T16:37:03.053Z,0.90
2022-08-30T16:39:31.046Z,0.90
2022-08-30T16:42:03.098Z,0.80
2022-08-30T16:44:36.118Z,0.80
2022-08-30T16:47:12.760Z,0.85
2022-08-30T16:49:48.723Z,0.95
2022-08-30T16:52:19.957Z,1.23
2022-08-30T16:54:52.013Z,0.93
2022-08-30T16:57:20.786Z,1.10
2022-08-30T16:59:49.554Z,0.90
2022-08-30T17:02:20.578Z,0.93
2022-08-30T17:04:53.057Z,0.90
2022-08-30T17:07:22.973Z,0.93
2022-08-30T17:09:51.281Z,0.80
2022-08-30T17:12:19.399Z,1.02
2022-08-30T17:14:47.739Z,0.90
2022-08-30T17:17:16.648Z,0.90
2022-08-30T17:19:52.136Z,1.00
2022-08-30T17:22:21.432Z,1.17
2022-08-30T17:24:52.355Z,1.67
2022-08-30T17:27:21.170Z,0.98
2022-08-30T17:29:49.296Z,1.90
2022-08-30T17:32:17.197Z,0.90
2022-08-30T17:34:45.891Z,1.08
2022-08-30T17:37:14.636Z,1.00
2022-08-30T17:39:42.741Z,1.00
2022-08-30T17:42:12.219Z,1.10
2022-08-30T17:44:42.206Z,1.10
2022-08-30T17:47:13.197Z,1.10
2022-08-30T17:49:41.351Z,1.10
2022-08-30T17:52:11.477Z,1.00
2022-08-30T17:54:40.115Z,1.00
2022-08-30T17:57:10.956Z,1.20
2022-08-30T17:59:41.305Z,0.98
2022-08-30T18:05:00.172Z,1.00
2022-08-30T18:07:28.760Z,0.90
2022-08-30T18:09:56.669Z,1.00
2022-08-30T18:12:24.952Z,1.30
2022-08-30T18:14:56.382Z,0.93
2022-08-30T18:17:24.503Z,1.10
2022-08-30T18:19:53.310Z,1.23
2022-08-30T18:22:21.688Z,1.10
2022-08-30T18:24:49.714Z,0.90
2022-08-30T18:27:19.431Z,1.15
2022-08-30T18:29:47.596Z,1.10
2022-08-30T18:32:17.068Z,1.10
2022-08-30T18:34:46.003Z,1.00
2022-08-30T18:37:14.698Z,0.90
2022-08-30T18:39:45.143Z,1.00
2022-08-30T18:42:15.651Z,0.90
2022-08-30T18:44:43.901Z,0.98
2022-08-30T18:47:12.244Z,0.90
2022-08-30T18:49:41.693Z,1.20
2022-08-30T18:52:11.230Z,1.00
2022-08-30T18:54:41.203Z,0.95
2022-08-30T18:57:10.083Z,1.10
2022-08-30T18:59:38.494Z,1.10
2022-08-30T19:02:07.155Z,1.27
2022-08-30T19:04:37.638Z,1.10
2022-08-30T19:07:09.042Z,1.30
2022-08-30T19:09:37.780Z,1.10
2022-08-30T19:12:09.849Z,1.00
2022-08-30T19:14:40.334Z,1.20
2022-08-30T19:17:09.156Z,0.90
2022-08-30T19:19:46.469Z,1.05
2022-08-30T19:22:19.805Z,1.10
2022-08-30T19:24:49.737Z,1.10
2022-08-30T19:27:19.123Z,1.00
2022-08-30T19:29:53.649Z,1.02
2022-08-30T19:32:22.046Z,1.10
2022-08-30T19:34:50.651Z,1.00
2022-08-30T19:37:21.960Z,1.05
2022-08-30T19:39:49.960Z,1.00
2022-08-30T19:42:19.765Z,1.10
2022-08-30T19:44:53.655Z,1.30
2022-08-30T19:47:22.684Z,1.10
2022-08-30T19:49:50.863Z,0.95
2022-08-30T19:52:21.181Z,1.20
2022-08-30T19:54:49.071Z,1.35
2022-08-30T19:57:17.215Z,1.40
2022-08-30T19:59:45.493Z,1.10
2022-08-30T20:02:13.640Z,1.30
2022-08-30T20:04:42.584Z,1.50
2022-08-30T20:07:10.945Z,1.10
2022-08-30T20:09:40.550Z,1.20
2022-08-30T20:12:09.117Z,1.10
2022-08-30T20:14:37.100Z,1.00
2022-08-30T20:17:05.296Z,1.13
2022-08-30T20:19:40.028Z,1.20
2022-08-30T20:22:08.547Z,1.10
2022-08-30T20:24:26.895Z,1.33
2022-08-30T20:24:41.338Z,1.20
2022-08-30T20:27:13.387Z,1.20
2022-08-30T20:29:42.029Z,1.10
2022-08-30T20:32:09.999Z,1.63
2022-08-30T20:34:39.646Z,1.40
2022-08-30T20:37:10.100Z,1.30
2022-08-30T20:39:39.171Z,1.27
2022-08-30T20:42:07.812Z,1.27
2022-08-30T20:44:38.939Z,1.08
2022-08-30T20:47:07.325Z,1.15
2022-08-30T20:49:35.960Z,1.27
2022-08-30T20:52:04.768Z,1.60
2022-08-30T20:54:33.135Z,1.10
2022-08-30T20:57:01.029Z,1.27
2022-08-30T20:59:28.994Z,1.23
2022-08-30T21:02:00.160Z,1.38
2022-08-30T21:04:29.019Z,1.45
2022-08-30T21:06:56.895Z,1.20
2022-08-30T21:09:24.824Z,1.33
2022-08-30T21:11:54.039Z,1.27
2022-08-30T21:14:22.484Z,1.27
2022-08-30T21:16:51.079Z,1.23
2022-08-30T21:19:20.538Z,1.50
2022-08-30T21:21:48.559Z,1.50
2022-08-30T21:24:16.603Z,1.50
2022-08-30T21:26:44.686Z,1.50
2022-08-30T21:29:15.114Z,1.30
2022-08-30T21:31:43.304Z,1.55
2022-08-30T21:34:23.206Z,1.20
2022-08-30T21:36:51.814Z,1.55
2022-08-30T21:39:22.321Z,1.40
2022-08-30T21:41:53.027Z,1.45
2022-08-30T21:44:24.016Z,1.35
2022-08-30T21:46:53.496Z,1.63
2022-08-30T21:49:24.210Z,1.50
2022-08-30T21:51:55.299Z,1.40
2022-08-30T21:54:24.599Z,1.30
2022-08-30T21:57:01.312Z,1.40
2022-08-30T21:59:29.710Z,1.38
2022-08-30T22:01:59.096Z,1.85
2022-08-30T22:04:27.420Z,1.20
2022-08-30T22:06:56.907Z,1.20
2022-08-30T22:09:26.300Z,1.48
2022-08-30T22:11:54.969Z,1.35
2022-08-30T22:14:23.315Z,1.35
2022-08-30T22:16:51.643Z,1.70
2022-08-30T22:19:23.353Z,1.45
2022-08-30T22:21:52.099Z,1.60
2022-08-30T22:24:27.225Z,1.40
2022-08-30T22:26:59.978Z,1.35
2022-08-30T22:29:29.850Z,1.40
2022-08-30T22:31:57.755Z,1.30
2022-08-30T22:34:25.965Z,1.73
2022-08-30T22:36:54.123Z,1.48
2022-08-30T22:39:22.027Z,1.55
2022-08-30T22:41:51.495Z,1.50
2022-08-30T22:44:20.018Z,1.40
2022-08-30T22:46:47.883Z,1.45
2022-08-30T22:49:16.260Z,1.40
2022-08-30T22:51:44.421Z,1.17
2022-08-30T22:54:12.353Z,1.50
2022-08-30T22:56:41.815Z,1.20
2022-08-30T22:59:11.576Z,1.30
2022-08-30T23:01:42.767Z,1.20
2022-08-30T23:04:12.031Z,1.30
2022-08-30T23:06:40.317Z,1.45
2022-08-30T23:09:11.333Z,1.38
2022-08-30T23:11:40.128Z,1.42
2022-08-30T23:14:08.546Z,1.83
2022-08-30T23:16:38.038Z,1.48
2022-08-30T23:19:06.829Z,1.50
2022-08-30T23:21:34.860Z,1.50
2022-08-30T23:24:20.142Z,1.35
2022-08-30T23:27:05.982Z,1.48
2022-08-30T23:29:53.511Z,1.17
2022-08-30T23:32:40.981Z,1.48
2022-08-30T23:35:30.249Z,1.27
2022-08-30T23:38:16.472Z,1.25
2022-08-30T23:41:01.854Z,1.50
2022-08-30T23:43:47.623Z,1.40
2022-08-30T23:46:38.785Z,1.33
2022-08-30T23:49:25.338Z,1.33
2022-08-30T23:52:10.748Z,1.20
2022-08-30T23:54:57.384Z,1.40
2022-08-30T23:57:43.904Z,1.40
